Time;durP1;ratioP1;P1;durP2;ratioP2;P2;SDS_P1;SDS_P2;PMS_P1;PMS_P2;Temp;Humidity;BMP_temperature;BMP_pressure;BME280_temperature;BME280_humidity;BME280_pressure;Samples;Min_cycle;Max_cycle;Signal;HPM_P1;HPM_P2
2022/08/26 00:00:50;;;;;;;2.00;1.90;;;23.20;99.90;;;23.35;78.91;101534.19;4824954;29;20045;-70
2022/08/26 00:03:18;;;;;;;2.22;2.13;;;23.10;99.90;;;23.38;79.54;101554.78;4824348;29;20088;-69
2022/08/26 00:05:50;;;;;;;2.20;2.10;;;23.10;99.90;;;23.42;80.20;101557.28;4824631;29;20436;-69
2022/08/26 00:08:20;;;;;;;2.10;2.00;;;23.10;99.90;;;23.49;80.02;101561.44;4824595;29;20054;-69
2022/08/26 00:10:49;;;;;;;2.17;2.08;;;23.20;99.90;;;23.30;80.53;101561.38;4824386;29;20051;-69
2022/08/26 00:13:17;;;;;;;2.47;2.38;;;23.10;99.90;;;23.14;80.65;101524.34;4824297;29;20082;-69
2022/08/26 00:15:46;;;;;;;2.53;2.42;;;23.00;99.90;;;23.34;80.74;101555.84;4824225;29;20043;-69
2022/08/26 00:18:15;;;;;;;2.10;2.00;;;23.10;99.90;;;23.35;80.95;101561.19;4824198;29;20111;-69
2022/08/26 00:20:51;;;;;;;2.10;2.00;;;23.10;99.90;;;22.94;82.36;101551.34;4824516;29;20054;-69
2022/08/26 00:23:19;;;;;;;2.45;2.35;;;22.80;99.90;;;22.79;83.10;101547.50;4824646;29;20088;-69
2022/08/26 00:25:52;;;;;;;2.42;2.33;;;22.60;99.90;;;23.11;82.39;101554.19;4823233;29;20075;-69
2022/08/26 00:28:21;;;;;;;2.15;2.05;;;22.70;99.90;;;23.12;82.49;101547.81;4824266;29;20051;-69
2022/08/26 00:30:49;;;;;;;2.30;2.20;;;22.80;99.90;;;23.25;82.12;101552.59;4823843;29;20082;-69
2022/08/26 00:33:20;;;;;;;2.40;2.30;;;22.90;99.90;;;23.21;81.79;101548.28;4823124;29;20054;-69
2022/08/26 00:35:50;;;;;;;;;;;22.90;99.90;;;23.03;82.25;101550.94;4824748;29;20061;-69
2022/08/26 00:38:21;;;;;;;2.22;2.13;;;22.70;99.90;;;22.93;83.67;101550.50;4824015;29;20295;-69
2022/08/26 00:40:54;;;;;;;7.13;2.20;;;22.60;99.90;;;22.73;83.19;101553.16;4824287;29;20058;-69
2022/08/26 00:43:25;;;;;;;2.15;2.05;;;22.50;99.90;;;22.76;83.97;101546.78;4824165;29;20406;-69
2022/08/26 00:45:59;;;;;;;1.88;1.80;;;22.40;99.90;;;22.83;82.99;101554.53;4824404;29;20477;-69
2022/08/26 00:48:32;;;;;;;1.92;1.85;;;22.50;99.90;;;23.01;82.11;101547.44;4823891;29;20412;-69
2022/08/26 00:51:10;;;;;;;2.30;2.20;;;22.70;99.90;;;23.11;81.70;101562.28;4823866;29;20099;-69
2022/08/26 00:53:45;;;;;;;1.88;1.80;;;22.80;99.90;;;23.03;81.76;101562.63;4823862;29;20073;-69
2022/08/26 00:56:21;;;;;;;2.10;2.00;;;22.70;99.90;;;23.12;81.93;101562.22;4823794;29;20417;-69
2022/08/26 00:58:50;;;;;;;2.42;2.33;;;22.80;99.90;;;23.18;80.62;101550.25;4823845;29;20137;-69
2022/08/26 01:01:19;;;;;;;1.90;1.80;;;22.90;99.90;;;23.28;80.32;101546.19;4823713;29;20524;-69
2022/08/26 01:03:50;;;;;;;2.33;2.22;;;23.00;99.90;;;23.29;79.75;101548.81;4823834;29;20066;-69
2022/08/26 01:06:21;;;;;;;2.20;2.10;;;23.00;99.90;;;23.34;79.85;101556.75;4825320;29;20493;-70
2022/08/26 01:08:51;;;;;;;1.98;1.88;;;23.00;99.90;;;23.32;79.67;101547.84;4827486;29;20062;-69
2022/08/26 01:11:20;;;;;;;2.20;2.10;;;23.00;99.90;;;23.41;79.44;101550.09;4825944;29;20400;-69
2022/08/26 01:13:51;;;;;;;2.03;1.92;;;23.10;99.90;;;23.51;78.99;101554.13;4827140;29;20061;-69
2022/08/26 01:16:19;;;;;;;2.20;2.10;;;23.20;99.90;;;23.46;78.74;101550.75;4826928;29;20091;-69
2022/08/26 01:18:48;;;;;;;1.70;1.70;;;23.20;99.90;;;23.40;78.82;101545.66;4826816;29;20073;-69
2022/08/26 01:21:26;;;;;;;2.20;2.10;;;23.20;99.90;;;23.18;78.22;101550.25;4825751;29;20470;-69
2022/08/26 01:23:59;;;;;;;1.92;1.83;;;23.10;99.90;;;23.29;78.80;101551.50;4827048;29;20110;-70
2022/08/26 01:26:33;;;;;;;2.00;1.90;;;23.00;99.90;;;23.31;78.36;101554.16;4826951;29;20047;-70
2022/08/26 01:29:05;;;;;;;2.10;2.00;;;23.00;99.90;;;23.34;77.87;101556.75;4826630;29;20047;-70
2022/08/26 01:31:40;;;;;;;2.10;2.00;;;23.10;99.90;;;23.32;77.54;101558.63;4826634;29;20427;-69
2022/08/26 01:34:15;;;;;;;2.25;2.15;;;23.00;99.90;;;23.29;77.19;101561.44;4827103;29;20047;-70
2022/08/26 01:36:45;;;;;;;2.22;2.13;;;23.00;99.90;;;23.35;76.87;101573.81;4826603;29;20051;-69
2022/08/26 01:39:20;;;;;;;2.10;2.00;;;23.10;99.90;;;23.27;76.92;101579.53;4826585;29;20046;-69
2022/08/26 01:41:50;;;;;;;2.10;2.00;;;23.00;99.90;;;23.38;76.89;101558.34;4826778;29;20402;-69
2022/08/26 01:44:27;;;;;;;2.35;2.25;;;23.10;99.90;;;23.18;76.98;101559.22;4826394;29;20078;-69
2022/08/26 01:46:57;;;;;;;2.10;2.00;;;22.90;99.90;;;23.13;77.31;101565.78;4826529;29;20058;-69
2022/08/26 01:49:26;;;;;;;2.08;1.98;;;22.80;99.90;;;23.28;76.93;101570.50;4826447;29;20137;-69
2022/08/26 01:51:59;;;;;;;2.00;1.90;;;23.00;99.90;;;23.37;76.31;101567.38;4826882;29;20051;-69
2022/08/26 01:54:29;;;;;;;2.65;2.55;;;23.10;99.90;;;23.05;77.06;101563.41;4826817;29;20053;-69
2022/08/26 01:56:57;;;;;;;1.93;1.83;;;22.80;99.90;;;23.10;77.05;101568.63;4826477;29;20476;-70
2022/08/26 01:59:26;;;;;;;2.05;1.95;;;22.90;99.90;;;23.19;76.69;101568.19;4825184;29;20485;-70
2022/08/26 02:01:54;;;;;;;2.10;2.00;;;22.90;99.90;;;23.20;76.82;101568.16;4826203;29;20312;-70
2022/08/26 02:04:29;;;;;;;2.10;2.00;;;23.00;99.90;;;23.19;76.88;101576.28;4825948;29;20062;-69
2022/08/26 02:06:58;;;;;;;1.90;1.80;;;22.90;99.90;;;23.17;76.71;101573.66;4826098;29;20061;-69
2022/08/26 02:09:28;;;;;;;2.10;2.00;;;22.90;99.90;;;23.19;76.73;101570.88;4825927;29;20054;-69
2022/08/26 02:12:00;;;;;;;2.25;2.15;;;23.00;99.90;;;23.14;76.61;101565.72;4826056;29;20054;-70
2022/08/26 02:14:33;;;;;;;2.00;1.90;;;22.90;99.90;;;23.04;76.68;101569.78;4826032;29;20126;-69
2022/08/26 02:17:02;;;;;;;2.05;1.95;;;22.80;99.90;;;23.08;77.01;101570.50;4825071;29;20451;-70
2022/08/26 02:19:39;;;;;;;2.20;2.10;;;22.80;99.90;;;23.05;76.85;101566.09;4825918;29;20054;-69
2022/08/26 02:22:14;;;;;;;2.67;2.58;;;22.80;99.90;;;22.74;77.79;101576.53;4825893;29;20050;-69
2022/08/26 02:24:51;;;;;;;2.30;2.20;;;22.50;99.90;;;22.93;77.21;101574.78;4825866;29;20078;-69
2022/08/26 02:27:23;;;;;;;2.13;2.03;;;22.70;99.90;;;22.79;78.00;101577.19;4825868;29;20084;-70
2022/08/26 02:29:57;;;;;;;2.65;2.55;;;22.50;99.90;;;22.90;77.68;101582.13;4825930;29;20081;-70
2022/08/26 02:32:26;;;;;;;2.55;2.45;;;22.60;99.90;;;22.51;77.66;101511.00;4825683;29;20081;-69
2022/08/26 02:34:54;;;;;;;3.15;2.33;;;22.60;99.90;;;22.96;77.32;101576.44;4825657;29;20048;-69
2022/08/26 02:37:23;;;;;;;2.15;2.05;;;22.70;99.90;;;22.96;77.31;101576.44;4825599;29;20046;-69
2022/08/26 02:39:53;;;;;;;2.30;2.20;;;22.70;99.90;;;23.01;77.56;101575.31;4825789;29;20049;-69
2022/08/26 02:42:22;;;;;;;2.17;2.08;;;22.70;99.90;;;22.87;77.55;101580.44;4825749;29;20079;-69
2022/08/26 02:44:52;;;;;;;5.80;2.43;;;22.60;99.90;;;22.71;78.14;101578.44;4825484;29;20129;-69
2022/08/26 02:47:20;;;;;;;1.90;1.80;;;22.40;99.90;;;22.89;78.01;101569.56;4825386;29;20076;-69
2022/08/26 02:49:52;;;;;;;2.00;1.90;;;22.50;99.90;;;23.02;77.41;101576.16;4825665;29;20046;-70
2022/08/26 02:52:20;;;;;;;1.90;1.80;;;22.70;99.90;;;23.12;76.60;101574.81;4825670;29;20498;-69
2022/08/26 02:54:49;;;;;;;1.95;1.85;;;22.80;99.90;;;23.06;76.60;101567.00;4825639;29;20074;-69
2022/08/26 02:57:19;;;;;;;2.50;2.40;;;22.70;99.90;;;23.14;76.70;101565.72;4825559;29;20393;-69
2022/08/26 02:59:49;;;;;;;2.15;2.05;;;22.80;99.90;;;22.52;75.79;101472.28;4825307;29;20458;-69
2022/08/26 03:02:17;;;;;;;2.13;2.03;;;22.80;99.90;;;23.12;76.54;101564.03;4825090;29;20038;-70
2022/08/26 03:04:46;;;;;;;4.40;3.17;;;22.80;99.90;;;22.77;77.56;101572.78;4825502;29;20058;-69
2022/08/26 03:07:29;;;;;;;2.22;2.13;;;22.60;99.90;;;22.99;76.72;101563.72;4825120;29;20047;-69
2022/08/26 03:09:59;;;;;;;2.27;2.17;;;22.70;99.90;;;23.09;76.78;101561.47;4825051;29;20044;-69
2022/08/26 03:12:29;;;;;;;1.80;1.80;;;22.80;99.90;;;23.13;76.51;101563.09;4825102;29;20573;-69
2022/08/26 03:14:57;;;;;;;2.23;2.13;;;22.80;99.90;;;23.19;76.58;101552.00;4825098;29;20079;-69
2022/08/26 03:17:25;;;;;;;2.05;1.95;;;22.90;99.90;;;23.13;76.42;101558.53;4824926;29;20193;-69
2022/08/26 03:19:54;;;;;;;2.20;2.10;;;22.80;99.90;;;23.26;76.16;101554.38;4823877;29;20133;-69
2022/08/26 03:22:25;;;;;;;2.38;2.28;;;23.00;99.90;;;23.25;76.01;101552.59;4825538;29;20059;-69
2022/08/26 03:24:54;;;;;;;2.27;2.17;;;23.00;99.90;;;23.00;76.30;101556.47;4824196;29;20050;-69
2022/08/26 03:27:23;;;;;;;2.30;2.20;;;22.80;99.90;;;22.93;77.54;101544.19;4825425;29;20306;-69
2022/08/26 03:32:39;;;;;;;2.13;2.03;;;22.60;99.90;;;23.05;77.15;101549.91;4824829;29;20103;-69
2022/08/26 03:35:09;;;;;;;2.20;2.10;;;22.70;99.90;;;22.83;77.40;101557.22;4824744;29;20054;-69
2022/08/26 03:37:38;;;;;;;3.15;2.88;;;22.60;99.90;;;23.00;76.71;101545.66;4824747;29;20416;-69
2022/08/26 03:40:10;;;;;;;2.30;2.20;;;22.70;99.90;;;23.06;76.57;101548.97;4824694;29;20493;-69
2022/08/26 03:42:40;;;;;;;2.35;2.25;;;22.80;99.90;;;22.47;76.32;101441.94;4825233;29;20047;-69
2022/08/26 03:45:15;;;;;;;2.00;1.90;;;22.80;99.90;;;23.14;75.74;101544.13;4823682;29;20511;-69
2022/08/26 03:47:45;;;;;;;2.00;1.90;;;22.80;99.90;;;23.18;75.33;101539.44;4825199;29;20078;-69
2022/08/26 03:50:18;;;;;;;2.00;1.90;;;22.90;99.90;;;23.18;75.26;101534.94;4824875;29;20051;-69
2022/08/26 03:52:51;;;;;;;2.10;2.00;;;22.90;99.90;;;23.21;74.89;101540.19;4824570;29;20050;-69
2022/08/26 03:55:24;;;;;;;1.70;1.70;;;23.00;99.90;;;22.93;75.86;101545.09;4824783;29;20485;-69
2022/08/26 03:57:54;;;;;;;2.30;2.20;;;22.90;99.90;;;22.90;76.54;101547.91;4824519;29;20050;-69
2022/08/26 04:00:24;;;;;;;2.30;2.20;;;22.70;99.90;;;22.79;77.78;101546.63;4824677;29;20054;-70
2022/08/26 04:02:53;;;;;;;2.65;2.55;;;22.50;99.90;;;22.66;78.73;101549.00;4824574;29;20050;-70
2022/08/26 04:05:23;;;;;;;2.58;2.42;;;22.30;99.90;;;22.47;81.12;101547.13;4824744;29;20058;-70
2022/08/26 04:07:52;;;;;;;2.00;1.90;;;22.10;99.90;;;22.42;82.15;101550.88;4824384;29;20099;-70
2022/08/26 04:10:23;;;;;;;2.97;2.42;;;22.00;99.90;;;22.41;82.36;101519.44;4824280;29;20481;-70
2022/08/26 04:12:56;;;;;;;2.20;2.10;;;22.10;99.90;;;22.71;81.38;101543.38;4824334;29;20507;-71
2022/08/26 04:15:28;;;;;;;2.33;2.22;;;22.30;99.90;;;22.79;80.87;101547.50;4823286;29;20059;-72
2022/08/26 04:17:56;;;;;;;2.70;2.60;;;22.40;99.90;;;22.64;81.70;101541.91;4824316;29;20058;-70
2022/08/26 04:20:25;;;;;;;2.50;2.40;;;22.30;99.90;;;22.48;82.98;101538.06;4823138;29;20050;-70
2022/08/26 04:22:53;;;;;;;2.55;2.45;;;22.10;99.90;;;22.66;82.74;101545.41;4824227;29;20050;-70
2022/08/26 04:25:22;;;;;;;2.42;2.28;;;22.30;99.90;;;22.75;82.06;101545.00;4824141;29;20042;-70
2022/08/26 04:27:51;;;;;;;2.10;2.00;;;22.40;99.90;;;22.63;82.23;101545.56;4823998;29;20046;-70
2022/08/26 04:30:20;;;;;;;2.40;2.30;;;22.30;99.90;;;22.75;81.64;101553.09;4824371;29;20702;-70
2022/08/26 04:32:50;;;;;;;2.35;2.25;;;22.40;99.90;;;22.61;81.42;101545.59;4824268;29;20073;-70
2022/08/26 04:35:19;;;;;;;2.30;2.20;;;22.40;99.90;;;22.65;81.64;101544.53;4824062;29;20046;-70
2022/08/26 04:37:54;;;;;;;2.20;2.10;;;22.40;99.90;;;22.59;81.36;101530.44;4824035;29;20046;-70
2022/08/26 04:40:23;;;;;;;2.42;2.33;;;22.40;99.90;;;22.71;80.47;101551.47;4824333;29;20046;-70
2022/08/26 04:42:53;;;;;;;2.60;2.50;;;22.50;99.90;;;22.79;80.37;101558.31;4827611;29;20515;-70
2022/08/26 04:45:21;;;;;;;2.10;2.00;;;22.50;99.90;;;22.81;80.07;101561.81;4827466;29;20046;-70
2022/08/26 04:47:55;;;;;;;2.17;2.08;;;22.60;99.90;;;22.67;79.45;101536.34;4827406;29;20508;-70
2022/08/26 04:50:24;;;;;;;6.45;2.40;;;22.60;99.90;;;22.80;78.82;101559.19;4827671;29;20120;-70
2022/08/26 04:52:54;;;;;;;2.00;1.90;;;22.60;99.90;;;22.31;78.70;101474.97;4827628;29;20050;-70
2022/08/26 04:55:23;;;;;;;2.03;1.92;;;22.60;99.90;;;22.85;78.19;101566.13;4827553;29;20450;-70
2022/08/26 04:58:08;;;;;;;2.40;2.30;;;22.60;99.90;;;22.91;77.59;101568.56;4827547;29;20058;-69
2022/08/26 05:00:38;;;;;;;;;;;22.60;99.90;;;22.73;78.20;101568.47;4827640;29;20050;-70
2022/08/26 05:03:09;;;;;;;2.50;2.40;;;22.40;99.90;;;22.87;77.89;101558.84;4827578;29;19941;-70
2022/08/26 05:05:41;;;;;;;2.40;2.30;;;22.60;99.90;;;22.98;77.47;101561.94;4827164;29;20280;-70
2022/08/26 05:08:10;;;;;;;2.38;2.28;;;22.70;99.90;;;22.80;76.86;101567.28;4827629;29;20064;-70
2022/08/26 05:10:40;;;;;;;2.72;2.63;;;22.60;99.90;;;22.73;78.02;101563.06;4826974;29;20054;-70
2022/08/26 05:13:11;;;;;;;2.45;2.35;;;22.50;99.90;;;22.56;77.98;101571.00;4827260;29;20050;-70
2022/08/26 05:15:44;;;;;;;2.20;2.10;;;22.30;99.90;;;22.79;77.58;101581.69;4827036;29;20088;-70
2022/08/26 05:18:17;;;;;;;2.47;2.38;;;22.50;99.90;;;22.74;76.96;101576.53;4826959;29;20050;-70
2022/08/26 05:20:50;;;;;;;2.15;2.05;;;22.50;99.90;;;22.81;76.93;101582.50;4827112;29;20158;-70
2022/08/26 05:23:23;;;;;;;2.20;2.10;;;22.60;99.90;;;22.91;76.28;101576.66;4827314;29;20058;-70
2022/08/26 05:25:54;;;;;;;2.28;2.17;;;22.70;99.90;;;22.96;76.36;101582.72;4826898;29;20046;-70
2022/08/26 05:28:32;;;;;;;2.25;2.15;;;22.70;99.90;;;22.94;76.19;101559.44;4827165;29;20105;-70
2022/08/26 05:31:00;;;;;;;1.90;1.80;;;22.80;99.90;;;22.90;76.07;101542.50;4826715;29;20168;-70
2022/08/26 05:33:30;;;;;;;2.10;2.00;;;22.80;99.90;;;23.07;76.00;101569.63;4826567;29;20489;-70
2022/08/26 05:35:58;;;;;;;2.20;2.10;;;22.80;99.90;;;23.04;75.93;101567.06;4826850;29;20072;-70
2022/08/26 05:38:27;;;;;;;4.95;3.38;;;22.80;99.90;;;23.16;75.73;101581.84;4826487;29;20046;-70
2022/08/26 05:40:57;;;;;;;2.20;2.10;;;22.90;99.90;;;23.19;75.38;101584.38;4826535;29;20058;-70
2022/08/26 05:43:26;;;;;;;2.05;1.95;;;23.00;99.90;;;23.03;76.12;101586.03;4826388;29;20100;-70
2022/08/26 05:45:55;;;;;;;2.25;2.15;;;22.80;99.90;;;23.06;75.59;101586.78;4826340;29;20051;-70
2022/08/26 05:48:23;;;;;;;2.33;2.22;;;22.80;99.90;;;23.00;75.59;101587.03;4826410;29;20054;-71
2022/08/26 05:50:53;;;;;;;2.65;2.55;;;22.80;99.90;;;22.96;76.19;101595.31;4826638;29;20074;-70
2022/08/26 05:53:23;;;;;;;2.30;2.20;;;22.70;99.90;;;22.63;75.62;101518.59;4826488;29;20485;-70
2022/08/26 05:55:56;;;;;;;2.85;2.75;;;22.80;99.90;;;23.10;75.17;101593.78;4826532;29;20081;-71
2022/08/26 05:58:27;;;;;;;2.20;2.10;;;22.90;99.90;;;23.04;74.85;101598.56;4826314;29;20099;-70
2022/08/26 06:01:04;;;;;;;2.10;2.00;;;22.80;99.90;;;23.05;74.41;101598.50;4826221;29;20046;-70
2022/08/26 06:03:36;;;;;;;2.33;2.22;;;22.80;99.90;;;23.01;74.64;101605.00;4825952;29;20054;-70
2022/08/26 06:06:09;;;;;;;2.20;2.10;;;22.80;99.90;;;23.03;75.21;101599.53;4826173;29;20560;-70
2022/08/26 06:08:38;;;;;;;2.35;2.22;;;22.90;99.90;;;22.84;75.37;101601.28;4826448;29;20054;-70
2022/08/26 06:11:10;;;;;;;2.50;2.40;;;22.70;99.90;;;22.75;76.11;101601.66;4825893;29;20476;-71
2022/08/26 06:13:46;;;;;;;2.28;2.17;;;22.50;99.90;;;22.20;77.03;101587.75;4825960;29;20050;-71
2022/08/26 06:16:19;;;;;;;2.47;2.38;;;22.30;99.90;;;22.63;76.91;101611.16;4824922;29;20081;-71
2022/08/26 06:18:49;;;;;;;2.65;2.55;;;22.30;99.90;;;22.50;76.84;101620.66;4826504;29;20109;-72
2022/08/26 06:21:23;;;;;;;2.47;2.38;;;22.30;99.90;;;22.67;77.03;101617.28;4826235;29;20050;-68
2022/08/26 06:26:43;;;;;;;2.05;1.95;;;22.50;99.90;;;22.75;75.78;101615.16;4825804;29;20072;-65
2022/08/26 06:29:18;;;;;;;2.30;2.20;;;22.50;99.90;;;22.73;75.51;101608.94;4826114;29;20157;-67
2022/08/26 06:31:52;;;;;;;2.50;2.40;;;22.50;99.90;;;22.87;75.21;101614.63;4825968;29;20047;-67
2022/08/26 06:34:21;;;;;;;2.50;2.30;;;22.60;99.90;;;22.90;74.82;101614.53;4825769;29;20038;-67
2022/08/26 06:36:52;;;;;;;2.17;2.08;;;22.70;99.90;;;22.97;73.84;101624.09;4825680;29;20043;-66
2022/08/26 06:39:21;;;;;;;2.20;2.10;;;22.80;99.90;;;22.90;73.79;101619.91;4825614;29;20057;-67
2022/08/26 06:41:50;;;;;;;2.20;2.10;;;22.70;99.90;;;22.98;73.52;101624.00;4825826;29;20057;-67
2022/08/26 06:44:19;;;;;;;2.40;2.30;;;22.80;99.90;;;23.02;73.06;101631.03;4825555;29;20054;-67
2022/08/26 06:46:48;;;;;;;2.45;2.35;;;22.80;99.90;;;23.04;73.39;101637.25;4825760;29;20099;-66
2022/08/26 06:49:18;;;;;;;2.63;2.45;;;22.80;99.90;;;23.02;73.62;101631.03;4825741;29;20057;-69
2022/08/26 06:51:57;;;;;;;2.35;2.25;;;22.80;99.90;;;22.96;73.79;101633.09;4824241;29;20054;-67
2022/08/26 06:54:26;;;;;;;8.35;2.75;;;22.80;99.90;;;22.90;74.02;101639.66;4825810;29;20508;-66
2022/08/26 06:56:55;;;;;;;2.40;2.30;;;22.70;99.90;;;22.98;73.19;101642.03;4825489;29;20125;-72
2022/08/26 06:59:25;;;;;;;2.10;2.00;;;22.70;99.90;;;22.93;73.13;101644.06;4825789;29;20493;-70
2022/08/26 07:01:53;;;;;;;2.22;2.13;;;22.70;99.90;;;23.00;72.45;101653.63;4823905;29;20050;-69
2022/08/26 07:04:23;;;;;;;2.00;1.90;;;22.70;99.90;;;23.04;72.19;101653.44;4824956;29;20063;-70
2022/08/26 07:06:56;;;;;;;2.20;2.10;;;22.80;99.90;;;23.14;71.86;101652.09;4825393;29;20126;-70
2022/08/26 07:09:29;;;;;;;2.05;1.95;;;22.90;99.90;;;23.11;71.85;101649.53;4825270;29;20078;-70
2022/08/26 07:11:58;;;;;;;2.20;2.10;;;22.90;99.90;;;23.06;71.40;101627.25;4825465;29;20042;-70
2022/08/26 07:14:26;;;;;;;2.20;2.10;;;22.90;99.90;;;23.07;71.03;101644.34;4825299;29;20053;-70
2022/08/26 07:16:55;;;;;;;2.25;2.15;;;22.80;99.90;;;23.02;71.65;101643.66;4825015;29;20080;-69
2022/08/26 07:19:24;;;;;;;2.78;2.55;;;22.80;99.90;;;23.03;71.63;101645.41;4825295;29;20077;-70
2022/08/26 07:22:05;;;;;;;2.13;2.03;;;22.70;99.90;;;23.10;71.45;101650.47;4825263;29;20057;-69
2022/08/26 07:24:39;;;;;;;2.20;2.10;;;22.80;99.90;;;22.97;71.78;101660.06;4824004;29;20429;-69
2022/08/26 07:27:12;;;;;;;2.25;2.15;;;22.70;99.90;;;23.08;71.28;101660.47;4825126;29;20043;-69
2022/08/26 07:29:42;;;;;;;2.30;2.20;;;22.80;99.90;;;23.22;70.66;101670.66;4825393;29;20077;-69
2022/08/26 07:32:13;;;;;;;2.20;2.10;;;22.90;99.90;;;23.26;70.77;101673.19;4825361;29;20057;-69
2022/08/26 07:34:42;;;;;;;2.28;2.17;;;23.00;99.90;;;23.26;70.09;101675.00;4825114;29;20545;-69
2022/08/26 07:37:12;;;;;;;2.28;2.17;;;23.00;99.90;;;23.37;69.18;101678.13;4824769;29;20133;-69
2022/08/26 07:39:42;;;;;;;1.92;1.83;;;23.10;99.90;;;23.27;69.29;101679.44;4825105;29;20054;-69
2022/08/26 07:42:13;;;;;;;1.92;1.83;;;23.10;99.90;;;23.33;68.83;101675.59;4824848;29;20038;-69
2022/08/26 07:44:42;;;;;;;2.20;2.10;;;23.10;99.90;;;23.22;69.48;101689.56;4824943;29;20099;-70
2022/08/26 07:47:12;;;;;;;2.20;2.10;;;23.00;99.90;;;23.29;70.27;101686.53;4824509;29;20413;-70
2022/08/26 07:49:55;;;;;;;1.95;1.85;;;23.00;99.90;;;23.28;70.32;101687.50;4824615;29;20102;-70
2022/08/26 07:52:27;;;;;;;2.28;2.17;;;23.10;99.90;;;23.30;69.93;101687.41;4824481;29;20083;-69
2022/08/26 07:54:56;;;;;;;2.15;2.05;;;23.10;99.90;;;23.12;70.28;101688.19;4824754;29;20073;-70
2022/08/26 07:57:25;;;;;;;2.45;2.35;;;22.90;99.90;;;23.01;71.00;101690.50;4824418;29;20050;-70
2022/08/26 07:59:54;;;;;;;2.20;2.10;;;22.70;99.90;;;23.14;71.04;101691.72;4824454;29;20052;-70
2022/08/26 08:02:26;;;;;;;2.20;2.10;;;22.80;99.90;;;23.22;70.95;101692.25;4824913;29;20137;-70
2022/08/26 08:04:55;;;;;;;;;;;23.00;99.90;;;23.19;70.70;101686.97;4825092;29;20093;-69
2022/08/26 08:07:26;;;;;;;2.10;2.00;;;23.00;99.90;;;23.11;70.58;101684.63;4824811;29;19929;-69
2022/08/26 08:10:17;;;;;;;2.10;2.00;;;23.00;99.90;;;23.06;70.87;101683.94;4824601;29;20054;-69
2022/08/26 08:12:49;;;;;;;2.20;2.10;;;22.80;99.90;;;22.91;70.88;101648.63;4824208;29;20494;-69
2022/08/26 08:15:20;;;;;;;2.20;2.10;;;22.90;99.90;;;23.14;71.00;101692.59;4823360;29;20045;-70
2022/08/26 08:17:49;;;;;;;1.90;1.83;;;23.00;99.90;;;23.02;70.86;101700.31;4824481;29;20047;-69
2022/08/26 08:20:20;;;;;;;2.15;2.05;;;22.90;99.90;;;22.91;71.38;101692.72;4824173;29;20074;-69
2022/08/26 08:22:53;;;;;;;2.35;2.25;;;22.80;99.90;;;23.16;71.33;101708.72;4823127;29;20452;-70
2022/08/26 08:25:22;;;;;;;2.15;2.05;;;22.90;99.90;;;23.15;70.89;101704.28;4824172;29;20038;-69
2022/08/26 08:27:53;;;;;;;2.45;2.35;;;22.90;99.90;;;23.17;70.63;101702.41;4824585;29;20137;-69
2022/08/26 08:30:23;;;;;;;1.90;1.80;;;23.00;99.90;;;22.81;71.08;101648.16;4824083;29;20051;-69
2022/08/26 08:32:52;;;;;;;1.73;1.73;;;22.90;99.90;;;23.19;71.50;101698.66;4823026;29;20501;-70
2022/08/26 08:35:25;;;;;;;1.90;1.80;;;23.00;99.90;;;23.37;71.55;101707.81;4824071;29;20046;-70
2022/08/26 08:37:55;;;;;;;2.40;2.30;;;23.10;99.90;;;23.23;71.16;101702.09;4824054;29;20103;-70
2022/08/26 08:40:26;;;;;;;2.00;1.90;;;23.00;99.90;;;23.35;70.79;101711.53;4824201;29;20051;-70
2022/08/26 08:43:04;;;;;;;2.40;2.30;;;23.10;99.90;;;23.33;69.82;101700.81;4823757;29;20054;-70
2022/08/26 08:45:37;;;;;;;2.35;2.25;;;23.10;99.90;;;23.38;69.61;101706.00;4824252;29;20051;-70
2022/08/26 08:48:13;;;;;;;2.08;1.98;;;23.10;99.90;;;23.47;69.71;101702.91;4823927;29;20107;-70
2022/08/26 08:50:45;;;;;;;2.17;2.08;;;23.20;99.90;;;23.54;69.66;101702.56;4824116;29;20046;-69
2022/08/26 08:53:21;;;;;;;2.30;2.20;;;23.30;99.90;;;23.53;69.41;101700.81;4822789;29;20455;-69
2022/08/26 08:56:12;;;;;;;2.28;2.17;;;23.30;99.90;;;23.59;69.05;101703.25;4823827;29;20493;-69
2022/08/26 08:58:52;;;;;;;2.17;2.08;;;23.40;99.90;;;23.44;67.99;101698.50;4824014;29;20119;-70
2022/08/26 09:01:41;;;;;;;2.35;2.25;;;23.40;99.90;;;23.50;67.93;101705.47;4824091;29;20056;-70
2022/08/26 09:04:24;;;;;;;2.15;2.05;;;23.30;99.90;;;23.56;67.87;101707.88;4823441;29;20149;-70
2022/08/26 09:06:56;;;;;;;1.83;1.77;;;23.40;99.90;;;23.52;68.04;101687.38;4823828;29;20050;-71
2022/08/26 09:09:33;;;;;;;1.92;1.83;;;23.40;99.90;;;23.74;67.59;101709.75;4823695;29;20054;-70
2022/08/26 09:12:02;;;;;;;1.98;1.88;;;23.50;99.90;;;23.80;67.73;101709.50;4823612;29;20454;-70
2022/08/26 09:14:31;;;;;;;2.00;1.90;;;23.60;99.90;;;23.73;67.63;101700.78;4823785;29;20080;-71
2022/08/26 09:17:07;;;;;;;2.05;1.95;;;23.50;99.90;;;23.82;67.74;101697.66;4822649;29;20497;-70
2022/08/26 09:19:41;;;;;;;2.35;2.25;;;23.60;99.90;;;23.85;68.01;101700.22;4823871;29;20472;-70
2022/08/26 09:22:09;;;;;;;2.30;2.20;;;23.60;99.90;;;23.81;68.18;101686.94;4823930;29;20138;-70
2022/08/26 09:24:40;;;;;;;2.78;2.50;;;23.60;99.90;;;23.81;67.99;101704.00;4824101;29;20133;-71
2022/08/26 09:27:38;;;;;;;2.00;1.90;;;23.60;99.90;;;23.74;68.37;101702.53;4825654;29;20057;-70
2022/08/26 09:30:08;;;;;;;;;;;23.60;99.90;;;23.60;68.67;101698.69;4827203;29;20054;-70
2022/08/26 09:32:39;;;;;;;2.92;2.72;;;23.40;99.90;;;23.34;68.89;101705.28;4826944;29;19924;-70
2022/08/26 09:35:22;;;;;;;2.20;2.10;;;23.20;99.90;;;23.25;69.46;101695.72;4826933;29;20046;-70
2022/08/26 09:37:51;;;;;;;2.08;1.98;;;23.20;99.90;;;22.93;70.95;101719.63;4826614;29;20466;-70
2022/08/26 09:40:31;;;;;;;2.22;2.13;;;22.70;99.90;;;23.13;70.83;101716.97;4826564;29;20046;-70
2022/08/26 09:43:14;;;;;;;2.15;2.05;;;22.80;99.90;;;23.23;70.72;101712.91;4826569;29;20046;-71
2022/08/26 09:45:45;;;;;;;;;;;23.00;99.90;;;23.32;70.13;101719.78;4825781;29;20484;-70
2022/08/26 09:48:31;;;;;;;2.20;2.10;;;23.00;99.90;;;23.17;69.44;101678.97;4840771;29;19924;-70
2022/08/26 09:51:06;;;;;;;2.53;2.30;;;23.20;99.90;;;23.35;68.74;101712.41;4827014;29;20065;-70
2022/08/26 09:53:37;;;;;;;2.00;1.90;;;23.20;99.90;;;23.26;69.65;101710.09;4826247;29;20046;-70
2022/08/26 09:56:17;;;;;;;2.17;2.08;;;23.00;99.90;;;23.44;69.43;101716.56;4826521;29;20141;-70
2022/08/26 09:58:47;;;;;;;1.90;1.80;;;23.20;99.90;;;23.55;68.93;101708.84;4826321;29;20171;-71
2022/08/26 10:01:28;;;;;;;2.38;2.28;;;23.30;99.90;;;23.65;68.69;101712.88;4826270;29;20078;-70
2022/08/26 10:04:07;;;;;;;6.53;2.15;;;23.40;99.90;;;23.49;68.65;101717.22;4826311;29;20146;-71
2022/08/26 10:06:41;;;;;;;2.00;1.90;;;23.30;99.90;;;23.70;68.07;101716.25;4826184;29;20046;-70
2022/08/26 10:09:13;;;;;;;1.90;1.80;;;23.40;99.90;;;23.65;67.37;101716.47;4826366;29;20046;-70
2022/08/26 10:11:49;;;;;;;1.88;1.80;;;23.40;99.90;;;23.72;67.05;101720.66;4826150;29;20054;-70
2022/08/26 10:14:25;;;;;;;2.22;2.13;;;23.50;99.90;;;23.70;66.35;101721.66;4824918;29;20141;-70
2022/08/26 10:16:59;;;;;;;2.05;1.95;;;23.40;99.90;;;23.60;66.65;101720.31;4825817;29;20494;-71
2022/08/26 10:19:34;;;;;;;2.20;2.10;;;23.40;99.90;;;23.66;66.09;101720.91;4825934;29;20516;-70
2022/08/26 10:22:41;;;;;;;2.10;2.00;;;23.50;99.90;;;23.66;66.23;101720.91;4826144;29;20093;-70
2022/08/26 10:25:16;;;;;;;2.13;2.03;;;23.50;99.90;;;23.39;67.04;101714.03;4824912;29;20417;-70
2022/08/26 10:27:54;;;;;;;1.90;1.80;;;23.30;99.90;;;23.15;67.51;101717.78;4826359;29;20046;-70
2022/08/26 10:30:29;;;;;;;2.00;1.90;;;22.90;99.90;;;23.36;67.56;101727.69;4826143;29;20089;-70
2022/08/26 10:33:04;;;;;;;2.25;2.15;;;23.10;99.90;;;23.41;66.81;101719.38;4825791;29;20505;-70
2022/08/26 10:35:35;;;;;;;2.00;1.90;;;23.10;99.90;;;23.48;66.69;101727.13;4826014;29;20050;-70
2022/08/26 10:38:10;;;;;;;2.10;2.00;;;23.20;99.90;;;23.46;66.17;101725.47;4824781;29;20046;-70